Terminal Aerodrome Forecast
Issued by NWS

Home | Current Version | Previous Version | Text Only | Print | Product List | Glossary On
Versions: 1 2 3 4 5 6 7 8 9 10 11 12 13 14 15
467
FTAK31 PAJN 091737
TAFAYA
TAF
PAYA 091737Z 0918/1018 07006KT P6SM SCT025 BKN040 BKN060
      TEMPO 0918/0921 FEW010 BKN025
     FM100400 VRB04KT P6SM FEW005 BKN120 WS020/06025KT
     FM101300 06008KT 4SM -RA BR BKN025 OVC050 WS020/08030KT
      AMD LTD TO CLD VIS AND WIND 1001/1009=

USA.gov is the U.S. government's official web portal to all federal, state and local government web resources and services.